Mumbai Express — V2AH1 — position and weather

sailwx.info

Track history (hours):
 
Tides and Currents Weather Stations Pressure Air Temp Water Temp Dewpoint Dewpoint Depression Visibility Wind Speed Wind Dir Waves Ship Positions

Mumbai Express

Last reported at 2014-Aug-13 00:33 UTC. Time now 2014-Aug-23 17:24 UTC.
Position N 33°42' W 077°08'.
Warning: this ship's position is 10 days out of date.

Length 260.7 m; beam 32.3 m; draft 12.5 m.

Type: Ship. MMSI: 304010914.

Date/timePositionNaut miles runAvg speedWind from/ knotsBaromVisibWave heightAir tempDewpointWater temp
2014-Aug-13 00:33N 33°42' W 077°08'2020.2
2014-Aug-12 23:33N 33°54' W 076°49'3221.0
2014-Aug-12 22:04N 34°13' W 076°18'1221.0
2014-Aug-12 21:31N 34°19' W 076°07'2020.5
2014-Aug-12 20:33N 34°32' W 075°49'13216.3
2014-Aug-12 12:27N 36°44' W 075°42'1818.4
2014-Aug-12 11:28N 36°57' W 075°59'1314.5
2014-Aug-12 10:33N 37°00' W 076°15'9 9.0
2014-Aug-12 09:32N 36°53' W 076°21'0 0.1
2014-Aug-12 06:19N 36°53' W 076°21'0 0.0
2014-Aug-12 04:30N 36°53' W 076°21'0 0.0
2014-Aug-12 01:04N 36°53' W 076°21'0 0.0
2014-Aug-11 22:24N 36°53' W 076°21'3 3.0
2014-Aug-11 21:26N 36°56' W 076°20'7 8.2
2014-Aug-11 20:33N 37°00' W 076°13'1712.2
2014-Aug-11 19:09N 36°54' W 075°53'913.8
2014-Aug-11 18:31N 36°51' W 075°43'1 0.1
2014-Aug-11 09:32N 36°51' W 075°42'0 0.0
2014-Aug-10 10:13N 36°51' W 075°42'0 0.1
2014-Aug-10 07:32N 36°51' W 075°42'1 0.6
2014-Aug-10 06:30N 36°52' W 075°42'9 9.6
2014-Aug-10 05:33N 36°53' W 075°53'1616.0
2014-Aug-10 04:33N 37°05' W 076°06'1615.6
2014-Aug-10 03:33N 37°21' W 076°05'8516.7
2014-Aug-09 22:29N 38°44' W 076°26'1617.0
2014-Aug-09 21:33N 38°59' W 076°23'1212.5
2014-Aug-09 20:34N 39°11' W 076°28'5 5.1
2014-Aug-09 19:32N 39°15' W 076°33'0 0.0
2014-Aug-09 18:29N 39°15' W 076°33'0 0.0
2014-Aug-09 17:31N 39°15' W 076°33'0 0.0
2014-Aug-09 16:31N 39°15' W 076°33'0 0.0
2014-Aug-09 15:31N 39°15' W 076°33'0 0.0
2014-Aug-09 14:33N 39°15' W 076°33'0 0.0
2014-Aug-09 13:33N 39°15' W 076°33'0 0.0
2014-Aug-09 12:32N 39°15' W 076°33'0 0.0
2014-Aug-09 11:32N 39°15' W 076°33'0 0.0
2014-Aug-09 10:31N 39°15' W 076°33'0 0.0
2014-Aug-09 09:31N 39°15' W 076°33'1 1.5
2014-Aug-09 08:33N 39°14' W 076°32'10 9.6
2014-Aug-09 07:33N 39°07' W 076°24'1515.1
2014-Aug-09 06:33N 38°52' W 076°24'8917.5
2014-Aug-09 01:28N 37°24' W 076°05'1618.1
2014-Aug-09 00:34N 37°08' W 076°08'1714.9
2014-Aug-08 23:25N 36°55' W 075°54'1312.5
2014-Aug-08 22:22N 36°59' W 075°39'14916.9
2014-Aug-08 13:33N 39°06' W 073°60'1817.3
2014-Aug-08 12:31N 39°24' W 073°56'1717.0
2014-Aug-08 11:31N 39°41' W 073°53'4715.8
2014-Aug-08 08:31N 40°28' W 073°52'1313.2
2014-Aug-08 07:33N 40°37' W 074°03'5 4.9
2014-Aug-08 06:33N 40°39' W 074°09'2 1.8
2014-Aug-08 05:33N 40°41' W 074°09'0 0.0
2014-Aug-08 04:33N 40°41' W 074°09'0 0.0
2014-Aug-08 03:32N 40°41' W 074°09'0 0.0
2014-Aug-08 02:32N 40°41' W 074°09'0 0.0
2014-Aug-08 01:32N 40°41' W 074°09'0 0.0
2014-Aug-08 00:31N 40°41' W 074°09'0 0.0
2014-Aug-07 23:28N 40°41' W 074°09'0 0.0
2014-Aug-07 22:30N 40°41' W 074°09'0 0.0
2014-Aug-07 21:30N 40°41' W 074°09'0 0.0
2014-Aug-07 20:32N 40°41' W 074°09'0 0.0
2014-Aug-07 19:32N 40°41' W 074°09'0 0.0
2014-Aug-07 18:29N 40°41' W 074°09'0 0.0
2014-Aug-07 17:31N 40°41' W 074°09'0 0.0
2014-Aug-07 15:33N 40°41' W 074°09'0 0.0
2014-Aug-07 14:33N 40°41' W 074°09'0 0.0
2014-Aug-07 13:32N 40°41' W 074°09'0 0.0
2014-Aug-07 12:32N 40°41' W 074°09'0 0.3
2014-Aug-07 11:33N 40°41' W 074°09'3 2.9
2014-Aug-07 10:33N 40°39' W 074°06'5 4.5
2014-Aug-07 09:33N 40°36' W 074°02'0 0.1
2014-Aug-07 08:24N 40°36' W 074°02'0 0.1
2014-Aug-07 07:32N 40°36' W 074°02'0 0.3
2014-Aug-07 06:32N 40°36' W 074°02'0 0.0
2014-Aug-07 05:31N 40°36' W 074°02'0 0.0
2014-Aug-07 04:31N 40°36' W 074°02'0 0.0
2014-Aug-07 03:31N 40°36' W 074°02'0 0.0
2014-Aug-07 02:33N 40°36' W 074°02'0 0.0
2014-Aug-07 01:33N 40°36' W 074°02'0 0.0
2014-Aug-07 00:32N 40°36' W 074°02'0 0.0
2014-Aug-06 23:32N 40°36' W 074°02'0 0.2
2014-Aug-06 22:28N 40°36' W 074°02'0 0.1
2014-Aug-06 21:13N 40°36' W 074°02'0 0.0
2014-Aug-06 20:28N 40°36' W 074°02'0 0.0
2014-Aug-06 18:33N 40°36' W 074°02'0 0.2
2014-Aug-06 17:32N 40°36' W 074°02'0 0.1
2014-Aug-06 16:32N 40°36' W 074°02'0 0.0
2014-Aug-06 15:33N 40°36' W 074°02'0 0.0
2014-Aug-06 14:33N 40°36' W 074°02'1 1.2
2014-Aug-06 13:33N 40°34' W 074°02'1211.9
2014-Aug-06 12:34N 40°27' W 073°49'7 7.1
2014-Aug-06 11:34N 40°23' W 073°42'8 8.0
2014-Aug-06 10:31N 40°18' W 073°33'1212.1
2014-Aug-06 09:34N 40°11' W 073°21'1212.3
2014-Aug-06 08:33N 40°04' W 073°08'1312.6
2014-Aug-06 07:33N 39°56' W 072°55'1312.6
2014-Aug-06 06:34N 39°46' W 072°44'1212.4
2014-Aug-06 05:33N 39°37' W 072°33'1312.5
2014-Aug-06 04:33N 39°29' W 072°21'1312.8
2014-Aug-06 03:33N 39°19' W 072°10'1313.2
2014-Aug-06 02:33N 39°10' W 071°58'1211.5
2014-Aug-06 01:33N 39°02' W 071°47'1313.4
2014-Aug-06 00:33N 38°53' W 071°35'1212.4
2014-Aug-05 23:33N 38°44' W 071°23'1212.3
2014-Aug-05 22:33N 38°35' W 071°12'1312.9
2014-Aug-05 21:32N 38°26' W 071°00'1312.8
2014-Aug-05 20:30N 38°17' W 070°48'1412.9
2014-Aug-05 19:25N 38°07' W 070°36'  
Track history (hours):
 
Tides and Currents Weather Stations Pressure Air Temp Water Temp Dewpoint Dewpoint Depression Visibility Wind Speed Wind Dir Waves Ship Positions

Mumbai Express

Last reported at 2014-Aug-13 00:33 UTC. Time now 2014-Aug-23 17:24 UTC.
Position N 33°42' W 077°08'.
Warning: this ship's position is 10 days out of date.

Length 260.7 m; beam 32.3 m; draft 12.5 m.

Type: Ship. MMSI: 304010914.

Date/timePositionNaut miles runAvg speedWind from/ knotsBaromVisibWave heightAir tempDewpointWater temp
2014-Aug-13 00:33N 33°42' W 077°08'2020.2
2014-Aug-12 23:33N 33°54' W 076°49'3221.0
2014-Aug-12 22:04N 34°13' W 076°18'1221.0
2014-Aug-12 21:31N 34°19' W 076°07'2020.5
2014-Aug-12 20:33N 34°32' W 075°49'13216.3
2014-Aug-12 12:27N 36°44' W 075°42'1818.4
2014-Aug-12 11:28N 36°57' W 075°59'1314.5
2014-Aug-12 10:33N 37°00' W 076°15'9 9.0
2014-Aug-12 09:32N 36°53' W 076°21'0 0.1
2014-Aug-12 06:19N 36°53' W 076°21'0 0.0
2014-Aug-12 04:30N 36°53' W 076°21'0 0.0
2014-Aug-12 01:04N 36°53' W 076°21'0 0.0
2014-Aug-11 22:24N 36°53' W 076°21'3 3.0
2014-Aug-11 21:26N 36°56' W 076°20'7 8.2
2014-Aug-11 20:33N 37°00' W 076°13'1712.2
2014-Aug-11 19:09N 36°54' W 075°53'913.8
2014-Aug-11 18:31N 36°51' W 075°43'1 0.1
2014-Aug-11 09:32N 36°51' W 075°42'0 0.0
2014-Aug-10 10:13N 36°51' W 075°42'0 0.1
2014-Aug-10 07:32N 36°51' W 075°42'1 0.6
2014-Aug-10 06:30N 36°52' W 075°42'9 9.6
2014-Aug-10 05:33N 36°53' W 075°53'1616.0
2014-Aug-10 04:33N 37°05' W 076°06'1615.6
2014-Aug-10 03:33N 37°21' W 076°05'8516.7
2014-Aug-09 22:29N 38°44' W 076°26'1617.0
2014-Aug-09 21:33N 38°59' W 076°23'1212.5
2014-Aug-09 20:34N 39°11' W 076°28'5 5.1
2014-Aug-09 19:32N 39°15' W 076°33'0 0.0
2014-Aug-09 18:29N 39°15' W 076°33'0 0.0
2014-Aug-09 17:31N 39°15' W 076°33'0 0.0
2014-Aug-09 16:31N 39°15' W 076°33'0 0.0
2014-Aug-09 15:31N 39°15' W 076°33'0 0.0
2014-Aug-09 14:33N 39°15' W 076°33'0 0.0
2014-Aug-09 13:33N 39°15' W 076°33'0 0.0
2014-Aug-09 12:32N 39°15' W 076°33'0 0.0
2014-Aug-09 11:32N 39°15' W 076°33'0 0.0
2014-Aug-09 10:31N 39°15' W 076°33'0 0.0
2014-Aug-09 09:31N 39°15' W 076°33'1 1.5
2014-Aug-09 08:33N 39°14' W 076°32'10 9.6
2014-Aug-09 07:33N 39°07' W 076°24'1515.1
2014-Aug-09 06:33N 38°52' W 076°24'8917.5
2014-Aug-09 01:28N 37°24' W 076°05'1618.1
2014-Aug-09 00:34N 37°08' W 076°08'1714.9
2014-Aug-08 23:25N 36°55' W 075°54'1312.5
2014-Aug-08 22:22N 36°59' W 075°39'14916.9
2014-Aug-08 13:33N 39°06' W 073°60'1817.3
2014-Aug-08 12:31N 39°24' W 073°56'1717.0
2014-Aug-08 11:31N 39°41' W 073°53'4715.8
2014-Aug-08 08:31N 40°28' W 073°52'1313.2
2014-Aug-08 07:33N 40°37' W 074°03'5 4.9
2014-Aug-08 06:33N 40°39' W 074°09'2 1.8
2014-Aug-08 05:33N 40°41' W 074°09'0 0.0
2014-Aug-08 04:33N 40°41' W 074°09'0 0.0
2014-Aug-08 03:32N 40°41' W 074°09'0 0.0
2014-Aug-08 02:32N 40°41' W 074°09'0 0.0
2014-Aug-08 01:32N 40°41' W 074°09'0 0.0
2014-Aug-08 00:31N 40°41' W 074°09'0 0.0
2014-Aug-07 23:28N 40°41' W 074°09'0 0.0
2014-Aug-07 22:30N 40°41' W 074°09'0 0.0
2014-Aug-07 21:30N 40°41' W 074°09'0 0.0
2014-Aug-07 20:32N 40°41' W 074°09'0 0.0
2014-Aug-07 19:32N 40°41' W 074°09'0 0.0
2014-Aug-07 18:29N 40°41' W 074°09'0 0.0
2014-Aug-07 17:31N 40°41' W 074°09'0 0.0
2014-Aug-07 15:33N 40°41' W 074°09'0 0.0
2014-Aug-07 14:33N 40°41' W 074°09'0 0.0
2014-Aug-07 13:32N 40°41' W 074°09'0 0.0
2014-Aug-07 12:32N 40°41' W 074°09'0 0.3
2014-Aug-07 11:33N 40°41' W 074°09'3 2.9
2014-Aug-07 10:33N 40°39' W 074°06'5 4.5
2014-Aug-07 09:33N 40°36' W 074°02'0 0.1
2014-Aug-07 08:24N 40°36' W 074°02'0 0.1
2014-Aug-07 07:32N 40°36' W 074°02'0 0.3
2014-Aug-07 06:32N 40°36' W 074°02'0 0.0
2014-Aug-07 05:31N 40°36' W 074°02'0 0.0
2014-Aug-07 04:31N 40°36' W 074°02'0 0.0
2014-Aug-07 03:31N 40°36' W 074°02'0 0.0
2014-Aug-07 02:33N 40°36' W 074°02'0 0.0
2014-Aug-07 01:33N 40°36' W 074°02'0 0.0
2014-Aug-07 00:32N 40°36' W 074°02'0 0.0
2014-Aug-06 23:32N 40°36' W 074°02'0 0.2
2014-Aug-06 22:28N 40°36' W 074°02'0 0.1
2014-Aug-06 21:13N 40°36' W 074°02'0 0.0
2014-Aug-06 20:28N 40°36' W 074°02'0 0.0
2014-Aug-06 18:33N 40°36' W 074°02'0 0.2
2014-Aug-06 17:32N 40°36' W 074°02'0 0.1
2014-Aug-06 16:32N 40°36' W 074°02'0 0.0
2014-Aug-06 15:33N 40°36' W 074°02'0 0.0
2014-Aug-06 14:33N 40°36' W 074°02'1 1.2
2014-Aug-06 13:33N 40°34' W 074°02'1211.9
2014-Aug-06 12:34N 40°27' W 073°49'7 7.1
2014-Aug-06 11:34N 40°23' W 073°42'8 8.0
2014-Aug-06 10:31N 40°18' W 073°33'1212.1
2014-Aug-06 09:34N 40°11' W 073°21'1212.3
2014-Aug-06 08:33N 40°04' W 073°08'1312.6
2014-Aug-06 07:33N 39°56' W 072°55'1312.6
2014-Aug-06 06:34N 39°46' W 072°44'1212.4
2014-Aug-06 05:33N 39°37' W 072°33'1312.5
2014-Aug-06 04:33N 39°29' W 072°21'1312.8
2014-Aug-06 03:33N 39°19' W 072°10'1313.2
2014-Aug-06 02:33N 39°10' W 071°58'1211.5
2014-Aug-06 01:33N 39°02' W 071°47'1313.4
2014-Aug-06 00:33N 38°53' W 071°35'1212.4
2014-Aug-05 23:33N 38°44' W 071°23'1212.3
2014-Aug-05 22:33N 38°35' W 071°12'1312.9
2014-Aug-05 21:32N 38°26' W 071°00'1312.8
2014-Aug-05 20:30N 38°17' W 070°48'1412.9
2014-Aug-05 19:25N 38°07' W 070°36'  

Dump ship's entire track history